createdAt,value
2023-01-29T00:00:11.082Z,100.00
2023-01-29T00:03:15.916Z,100.00
2023-01-29T00:06:20.272Z,100.00
2023-01-29T00:09:25.598Z,100.00
2023-01-29T00:12:30.160Z,100.00
2023-01-29T00:15:34.353Z,100.00
2023-01-29T00:18:43.091Z,100.00
2023-01-29T00:21:49.460Z,100.00
2023-01-29T00:24:54.011Z,100.00
2023-01-29T00:27:59.930Z,100.00
2023-01-29T00:31:15.883Z,100.00
2023-01-29T00:34:25.267Z,100.00
2023-01-29T00:37:30.504Z,100.00
2023-01-29T00:40:53.829Z,100.00
2023-01-29T00:44:18.136Z,100.00
2023-01-29T00:47:40.090Z,100.00
2023-01-29T00:50:45.240Z,100.00
2023-01-29T00:53:52.444Z,100.00
2023-01-29T00:56:58.990Z,100.00
2023-01-29T01:00:06.591Z,100.00
2023-01-29T01:03:12.549Z,100.00
2023-01-29T01:06:17.273Z,100.00
2023-01-29T01:09:40.255Z,100.00
2023-01-29T01:12:45.386Z,100.00
2023-01-29T01:15:49.419Z,100.00
2023-01-29T01:18:53.807Z,100.00
2023-01-29T01:21:58.041Z,100.00
2023-01-29T01:25:01.766Z,100.00
2023-01-29T01:28:05.333Z,100.00
2023-01-29T01:31:13.652Z,100.00
2023-01-29T01:34:18.843Z,100.00
2023-01-29T01:37:23.412Z,100.00
2023-01-29T01:40:27.330Z,100.00
2023-01-29T01:43:48.646Z,100.00
2023-01-29T01:46:53.016Z,100.00
2023-01-29T01:50:03.418Z,100.00
2023-01-29T01:53:11.395Z,100.00
2023-01-29T01:56:20.575Z,100.00
2023-01-29T01:59:25.108Z,100.00
2023-01-29T02:02:47.006Z,100.00
2023-01-29T02:06:09.746Z,100.00
2023-01-29T02:09:35.401Z,100.00
2023-01-29T02:12:39.304Z,100.00
2023-01-29T02:15:47.620Z,100.00
2023-01-29T02:18:51.943Z,100.00
2023-01-29T02:22:29.949Z,100.00
2023-01-29T02:26:18.820Z,100.00
2023-01-29T02:29:36.756Z,100.00
2023-01-29T02:32:59.596Z,100.00
2023-01-29T02:36:25.518Z,100.00
2023-01-29T02:39:49.728Z,100.00
2023-01-29T02:43:06.007Z,100.00
2023-01-29T02:46:13.517Z,100.00
2023-01-29T02:49:36.766Z,100.00
2023-01-29T02:53:01.578Z,100.00
2023-01-29T02:56:17.571Z,100.00
2023-01-29T02:59:35.719Z,100.00
2023-01-29T03:02:58.572Z,100.00
2023-01-29T03:06:23.408Z,100.00
2023-01-29T03:09:52.201Z,100.00
2023-01-29T03:13:08.167Z,100.00
2023-01-29T03:16:27.785Z,100.00
2023-01-29T03:19:51.116Z,100.00
2023-01-29T03:23:10.519Z,100.00
2023-01-29T03:26:36.425Z,100.00
2023-01-29T04:43:36.172Z,100.00
2023-01-29T05:06:33.923Z,100.00
2023-01-29T05:14:20.806Z,100.00
2023-01-29T05:40:16.064Z,98.42
2023-01-29T05:43:35.092Z,97.72
2023-01-29T06:09:20.149Z,94.19
2023-01-29T06:12:27.849Z,95.36
2023-01-29T06:22:39.316Z,96.57
2023-01-29T06:29:18.785Z,98.56
2023-01-29T06:32:47.434Z,98.33
2023-01-29T06:36:01.344Z,100.00
2023-01-29T06:39:19.033Z,100.00
2023-01-29T06:42:34.601Z,100.00
2023-01-29T06:45:54.428Z,100.00
2023-01-29T06:49:02.139Z,100.00
2023-01-29T06:55:56.589Z,100.00
2023-01-29T06:59:04.196Z,100.00
2023-01-29T07:02:32.464Z,100.00
2023-01-29T07:05:47.923Z,100.00
2023-01-29T07:09:00.559Z,100.00
2023-01-29T07:12:31.097Z,100.00
2023-01-29T07:15:37.316Z,100.00
2023-01-29T07:18:45.348Z,100.00
2023-01-29T08:10:47.238Z,97.73
2023-01-29T08:14:01.287Z,95.94
2023-01-29T08:17:14.522Z,96.97
2023-01-29T08:20:34.616Z,95.93
2023-01-29T08:27:11.848Z,96.18
2023-01-29T08:30:18.445Z,95.10
2023-01-29T08:33:38.338Z,96.60
2023-01-29T08:36:55.497Z,94.10
2023-01-29T08:40:14.275Z,95.01
2023-01-29T08:43:27.087Z,94.75
2023-01-29T08:46:45.228Z,95.73
2023-01-29T08:49:56.401Z,92.55
2023-01-29T08:53:33.090Z,92.17
2023-01-29T09:00:35.480Z,90.40
2023-01-29T09:03:49.682Z,92.25
2023-01-29T09:07:09.569Z,89.64
2023-01-29T09:10:17.754Z,90.66
2023-01-29T09:13:31.882Z,92.00
2023-01-29T09:23:25.250Z,89.70
2023-01-29T09:26:34.287Z,89.24
2023-01-29T09:29:42.138Z,88.97
2023-01-29T09:32:56.183Z,89.42
2023-01-29T09:36:00.298Z,89.46
2023-01-29T09:39:16.455Z,89.58
2023-01-29T09:46:17.202Z,86.75
2023-01-29T09:49:42.392Z,87.26
2023-01-29T09:53:21.823Z,86.05
2023-01-29T09:56:30.323Z,85.79
2023-01-29T09:59:35.444Z,86.09
2023-01-29T10:02:58.929Z,85.81
2023-01-29T10:06:37.330Z,86.40
2023-01-29T10:10:19.760Z,84.73
2023-01-29T10:13:50.384Z,84.49
2023-01-29T10:17:22.529Z,83.80
2023-01-29T10:21:19.825Z,84.15
2023-01-29T10:24:57.843Z,84.00
2023-01-29T10:31:35.409Z,83.85
2023-01-29T10:35:01.287Z,82.55
2023-01-29T10:38:51.647Z,82.46
2023-01-29T10:42:19.973Z,83.36
2023-01-29T10:45:51.754Z,81.75
2023-01-29T10:53:23.223Z,81.36
2023-01-29T10:56:55.183Z,80.28
2023-01-29T11:00:09.255Z,80.09
2023-01-29T11:03:39.902Z,79.73
2023-01-29T11:06:48.408Z,79.63
2023-01-29T11:10:20.897Z,79.51
2023-01-29T11:13:38.159Z,78.64
2023-01-29T11:16:46.360Z,78.37
2023-01-29T11:19:54.208Z,78.24
2023-01-29T11:23:03.480Z,78.43
2023-01-29T11:26:10.375Z,78.65
2023-01-29T11:29:51.956Z,77.76
2023-01-29T11:33:26.958Z,78.18
2023-01-29T11:36:58.458Z,76.58
2023-01-29T11:40:28.796Z,76.82
2023-01-29T11:43:45.147Z,74.26
2023-01-29T11:46:50.184Z,73.54
2023-01-29T11:49:58.302Z,73.56
2023-01-29T11:53:10.910Z,74.91
2023-01-29T11:56:42.888Z,72.24
2023-01-29T11:59:53.089Z,72.05
2023-01-29T12:03:11.956Z,71.22
2023-01-29T12:06:40.693Z,71.15
2023-01-29T12:09:53.204Z,69.87
2023-01-29T12:13:12.237Z,68.59
2023-01-29T12:16:27.826Z,68.93
2023-01-29T12:20:10.844Z,69.43
2023-01-29T12:23:36.999Z,70.45
2023-01-29T12:26:53.779Z,69.62
2023-01-29T12:30:01.732Z,69.81
2023-01-29T12:33:39.422Z,68.85
2023-01-29T12:36:49.082Z,68.95
2023-01-29T12:39:56.959Z,67.91
2023-01-29T12:43:28.825Z,66.62
2023-01-29T12:46:44.192Z,65.70
2023-01-29T12:49:57.547Z,65.74
2023-01-29T12:53:42.472Z,66.67
2023-01-29T12:57:04.492Z,65.39
2023-01-29T13:00:22.004Z,68.63
2023-01-29T13:03:55.911Z,68.15
2023-01-29T13:07:17.835Z,70.73
2023-01-29T13:10:36.504Z,71.69
2023-01-29T13:13:57.623Z,71.60
2023-01-29T13:17:24.362Z,72.00
2023-01-29T13:20:33.442Z,72.60
2023-01-29T13:23:57.916Z,74.08
2023-01-29T13:27:09.487Z,73.57
2023-01-29T13:30:36.766Z,74.57
2023-01-29T13:33:44.848Z,75.39
2023-01-29T13:36:56.028Z,73.54
2023-01-29T13:40:08.268Z,73.55
2023-01-29T13:43:25.775Z,72.72
2023-01-29T13:46:32.284Z,73.62
2023-01-29T13:49:44.459Z,74.47
2023-01-29T13:53:07.211Z,74.85
2023-01-29T13:56:30.973Z,75.38
2023-01-29T13:59:57.743Z,75.41
2023-01-29T14:04:02.178Z,75.31
2023-01-29T14:07:53.882Z,75.65
2023-01-29T14:11:25.743Z,77.00
2023-01-29T14:15:07.539Z,76.74
2023-01-29T14:18:23.985Z,76.50
2023-01-29T14:21:34.105Z,76.51
2023-01-29T14:24:49.311Z,75.98
2023-01-29T14:27:56.501Z,77.03
2023-01-29T14:31:04.372Z,75.86
2023-01-29T14:34:17.203Z,75.23
2023-01-29T14:41:31.000Z,75.29
2023-01-29T14:45:02.841Z,76.35
2023-01-29T14:49:04.332Z,76.50
2023-01-29T14:52:14.184Z,77.49
2023-01-29T14:55:47.079Z,76.73
2023-01-29T14:58:57.218Z,77.52
2023-01-29T15:02:11.209Z,78.17
2023-01-29T15:05:21.958Z,78.68
2023-01-29T15:12:23.047Z,77.91
2023-01-29T15:15:52.878Z,77.71
2023-01-29T15:19:06.430Z,78.01
2023-01-29T15:22:30.175Z,79.00
2023-01-29T15:25:51.516Z,78.56
2023-01-29T15:29:05.117Z,79.31
2023-01-29T15:32:16.960Z,78.75
2023-01-29T15:35:31.083Z,78.69
2023-01-29T15:38:40.725Z,79.91
2023-01-29T15:41:46.895Z,80.50
2023-01-29T15:44:57.683Z,80.77
2023-01-29T15:48:24.021Z,81.94
2023-01-29T15:51:30.385Z,82.95
2023-01-29T15:54:36.409Z,84.42
2023-01-29T15:57:46.596Z,85.69
2023-01-29T16:00:55.937Z,82.99
2023-01-29T16:04:05.434Z,83.73
2023-01-29T16:07:10.419Z,85.01
2023-01-29T16:10:50.168Z,83.71
2023-01-29T16:14:04.027Z,84.06
2023-01-29T16:17:38.236Z,85.68
2023-01-29T16:20:47.881Z,87.83
2023-01-29T16:24:00.651Z,84.85
2023-01-29T16:27:19.893Z,85.12
2023-01-29T16:30:32.310Z,84.90
2023-01-29T16:33:47.561Z,85.34
2023-01-29T16:36:53.536Z,84.99
2023-01-29T16:40:06.678Z,85.56
2023-01-29T16:43:26.171Z,84.71
2023-01-29T16:46:46.137Z,84.68
2023-01-29T16:49:58.009Z,84.73
2023-01-29T16:53:15.151Z,86.38
2023-01-29T16:56:28.148Z,86.78
2023-01-29T16:59:38.860Z,86.81
2023-01-29T17:02:43.782Z,86.21
2023-01-29T17:05:48.789Z,88.03
2023-01-29T17:08:52.706Z,86.45
2023-01-29T17:12:01.224Z,86.25
2023-01-29T17:15:29.505Z,86.69
2023-01-29T17:18:38.034Z,86.71
2023-01-29T17:21:49.034Z,87.08
2023-01-29T17:24:54.034Z,88.28
2023-01-29T17:28:00.920Z,87.90
2023-01-29T17:31:06.983Z,88.20
2023-01-29T17:34:26.965Z,87.74
2023-01-29T17:37:32.746Z,88.15
2023-01-29T17:41:09.610Z,85.18
2023-01-29T17:44:13.669Z,84.77
2023-01-29T17:47:17.638Z,85.70
2023-01-29T17:50:27.375Z,87.18
2023-01-29T17:53:44.878Z,86.76
2023-01-29T17:56:53.221Z,85.91
2023-01-29T17:59:56.449Z,87.04
2023-01-29T18:03:02.984Z,89.04
2023-01-29T18:06:09.885Z,87.16
2023-01-29T18:09:15.712Z,85.95
2023-01-29T18:12:19.421Z,85.83
2023-01-29T18:15:24.544Z,87.07
2023-01-29T18:18:29.320Z,88.83
2023-01-29T18:21:32.639Z,89.05
2023-01-29T18:24:38.960Z,88.75
2023-01-29T18:27:44.296Z,89.52
2023-01-29T18:30:48.026Z,90.50
2023-01-29T18:33:53.249Z,89.50
2023-01-29T18:37:00.846Z,88.44
2023-01-29T18:40:05.588Z,89.42
2023-01-29T18:43:10.213Z,88.09
2023-01-29T18:46:13.564Z,88.63
2023-01-29T18:49:18.029Z,88.83
2023-01-29T18:52:22.452Z,90.07
2023-01-29T18:55:27.086Z,89.72
2023-01-29T18:58:38.363Z,87.75
2023-01-29T19:01:42.478Z,87.85
2023-01-29T19:04:47.212Z,88.51
2023-01-29T19:07:52.290Z,88.72
2023-01-29T19:10:56.882Z,88.19
2023-01-29T19:14:01.025Z,88.75
2023-01-29T19:17:08.044Z,89.76
2023-01-29T19:20:12.706Z,89.59
2023-01-29T19:23:16.834Z,87.24
2023-01-29T19:26:20.753Z,88.57
2023-01-29T19:29:24.845Z,86.99
2023-01-29T19:32:31.852Z,87.89
2023-01-29T19:35:35.546Z,89.11
2023-01-29T19:38:39.422Z,87.78
2023-01-29T19:41:44.074Z,89.06
2023-01-29T19:44:47.373Z,87.49
2023-01-29T19:47:51.191Z,88.14
2023-01-29T19:51:00.041Z,86.49
2023-01-29T19:54:05.047Z,86.75
2023-01-29T19:57:08.384Z,86.45
2023-01-29T20:00:16.355Z,85.75
2023-01-29T20:03:21.530Z,86.30
2023-01-29T20:06:31.537Z,87.14
2023-01-29T20:09:35.496Z,86.92
2023-01-29T20:12:39.784Z,86.30
2023-01-29T20:15:50.456Z,85.17
2023-01-29T20:18:53.751Z,86.37
2023-01-29T20:21:56.854Z,88.98
2023-01-29T20:25:00.699Z,87.27
2023-01-29T20:28:07.107Z,87.47
2023-01-29T20:31:11.442Z,88.30
2023-01-29T20:34:14.885Z,87.49
2023-01-29T20:37:17.991Z,88.35
2023-01-29T20:40:21.008Z,90.19
2023-01-29T20:43:24.717Z,88.68
2023-01-29T20:46:29.219Z,88.36
2023-01-29T20:49:32.599Z,89.34
2023-01-29T20:52:41.231Z,87.32
2023-01-29T20:55:46.003Z,86.96
2023-01-29T20:58:48.744Z,87.47
2023-01-29T21:01:53.122Z,89.03
2023-01-29T21:04:57.729Z,89.14
2023-01-29T21:08:01.238Z,90.50
2023-01-29T21:11:09.929Z,90.36
2023-01-29T21:14:16.628Z,89.29
2023-01-29T21:17:23.522Z,90.10
2023-01-29T21:20:28.011Z,89.29
2023-01-29T21:23:31.268Z,90.03
2023-01-29T21:26:34.868Z,91.04
2023-01-29T21:29:42.838Z,90.04
2023-01-29T21:32:49.512Z,89.08
2023-01-29T21:35:59.876Z,91.71
2023-01-29T21:39:18.427Z,90.36
2023-01-29T21:42:41.995Z,89.01
2023-01-29T21:45:47.772Z,91.16
2023-01-29T21:48:52.445Z,91.61
2023-01-29T21:51:57.723Z,90.67
2023-01-29T21:55:02.050Z,91.57
2023-01-29T21:58:08.349Z,90.48
2023-01-29T22:01:37.560Z,91.27
2023-01-29T22:04:37.640Z,91.33
2023-01-29T22:07:41.343Z,91.28
2023-01-29T22:10:44.944Z,90.52
2023-01-29T22:13:49.824Z,91.33
2023-01-29T22:16:55.598Z,90.90
2023-01-29T22:19:59.342Z,90.37
2023-01-29T22:23:04.102Z,91.67
2023-01-29T22:26:10.584Z,93.16
2023-01-29T22:29:20.619Z,92.89
2023-01-29T22:32:24.792Z,92.52
2023-01-29T22:35:29.361Z,92.26
2023-01-29T22:38:35.129Z,92.58
2023-01-29T22:41:39.742Z,92.17
2023-01-29T22:44:43.236Z,92.26
2023-01-29T22:47:46.447Z,93.29
2023-01-29T22:51:10.339Z,94.94
2023-01-29T22:54:16.058Z,93.20
2023-01-29T22:57:21.513Z,93.54
2023-01-29T23:00:27.370Z,95.03
2023-01-29T23:03:31.679Z,95.41
2023-01-29T23:06:35.427Z,95.09
2023-01-29T23:09:38.522Z,95.23
2023-01-29T23:12:42.316Z,96.67
2023-01-29T23:15:47.890Z,96.05
2023-01-29T23:18:53.705Z,96.09
2023-01-29T23:21:56.745Z,97.06
2023-01-29T23:25:03.244Z,96.68
2023-01-29T23:28:07.171Z,95.87
2023-01-29T23:31:12.118Z,95.70
2023-01-29T23:34:18.164Z,95.17
2023-01-29T23:37:21.561Z,95.59
2023-01-29T23:40:24.504Z,97.60
2023-01-29T23:43:29.484Z,97.70
2023-01-29T23:46:33.419Z,97.18
2023-01-29T23:49:38.024Z,100.00
2023-01-29T23:52:42.331Z,98.97
2023-01-29T23:55:59.878Z,99.65
2023-01-29T23:59:03.277Z,99.65
